sensor_id;sensor_type;location;lat;lon;timestamp;P1;durP1;ratioP1;P2;durP2;ratioP2
62523;SDS011;53689;56.878;60.672;2022-12-11T00:00:36;6.10;;;3.60;;
62523;SDS011;53689;56.878;60.672;2022-12-11T00:03:05;8.18;;;4.43;;
62523;SDS011;53689;56.878;60.672;2022-12-11T00:05:40;7.13;;;4.50;;
62523;SDS011;53689;56.878;60.672;2022-12-11T00:08:08;7.55;;;4.57;;
62523;SDS011;53689;56.878;60.672;2022-12-11T00:10:36;7.32;;;3.92;;
62523;SDS011;53689;56.878;60.672;2022-12-11T00:13:04;7.30;;;4.25;;
62523;SDS011;53689;56.878;60.672;2022-12-11T00:15:32;6.65;;;4.38;;
62523;SDS011;53689;56.878;60.672;2022-12-11T00:18:00;8.05;;;3.90;;
62523;SDS011;53689;56.878;60.672;2022-12-11T00:20:29;7.28;;;4.75;;
62523;SDS011;53689;56.878;60.672;2022-12-11T00:22:57;6.23;;;4.00;;
62523;SDS011;53689;56.878;60.672;2022-12-11T00:25:24;6.45;;;4.10;;
62523;SDS011;53689;56.878;60.672;2022-12-11T00:27:53;6.07;;;4.05;;
62523;SDS011;53689;56.878;60.672;2022-12-11T00:30:21;9.60;;;5.00;;
62523;SDS011;53689;56.878;60.672;2022-12-11T00:32:50;9.30;;;4.70;;
62523;SDS011;53689;56.878;60.672;2022-12-11T00:35:17;7.47;;;4.40;;
62523;SDS011;53689;56.878;60.672;2022-12-11T00:37:47;7.90;;;4.43;;
62523;SDS011;53689;56.878;60.672;2022-12-11T00:40:15;7.65;;;4.30;;
62523;SDS011;53689;56.878;60.672;2022-12-11T00:42:42;7.03;;;4.18;;
62523;SDS011;53689;56.878;60.672;2022-12-11T00:45:10;8.13;;;4.10;;
62523;SDS011;53689;56.878;60.672;2022-12-11T00:47:38;7.10;;;4.72;;
62523;SDS011;53689;56.878;60.672;2022-12-11T00:50:06;6.63;;;4.15;;
62523;SDS011;53689;56.878;60.672;2022-12-11T00:52:34;7.25;;;4.30;;
62523;SDS011;53689;56.878;60.672;2022-12-11T00:55:03;6.78;;;3.70;;
62523;SDS011;53689;56.878;60.672;2022-12-11T00:59:58;8.25;;;4.53;;
62523;SDS011;53689;56.878;60.672;2022-12-11T01:02:25;7.85;;;4.15;;
62523;SDS011;53689;56.878;60.672;2022-12-11T01:04:54;7.53;;;4.07;;
62523;SDS011;53689;56.878;60.672;2022-12-11T01:07:22;9.57;;;4.70;;
62523;SDS011;53689;56.878;60.672;2022-12-11T01:09:50;5.88;;;3.72;;
62523;SDS011;53689;56.878;60.672;2022-12-11T01:12:19;8.45;;;4.88;;
62523;SDS011;53689;56.878;60.672;2022-12-11T01:14:47;8.40;;;4.40;;
62523;SDS011;53689;56.878;60.672;2022-12-11T01:17:14;8.65;;;5.00;;
62523;SDS011;53689;56.878;60.672;2022-12-11T01:19:42;9.05;;;4.80;;
62523;SDS011;53689;56.878;60.672;2022-12-11T01:22:09;10.57;;;5.60;;
62523;SDS011;53689;56.878;60.672;2022-12-11T01:24:37;7.00;;;4.60;;
62523;SDS011;53689;56.878;60.672;2022-12-11T01:27:05;9.05;;;4.85;;
62523;SDS011;53689;56.878;60.672;2022-12-11T01:29:33;10.20;;;5.00;;
62523;SDS011;53689;56.878;60.672;2022-12-11T01:32:01;9.60;;;4.75;;
62523;SDS011;53689;56.878;60.672;2022-12-11T01:34:29;11.35;;;5.38;;
62523;SDS011;53689;56.878;60.672;2022-12-11T01:36:57;9.65;;;5.57;;
62523;SDS011;53689;56.878;60.672;2022-12-11T01:39:25;9.15;;;4.93;;
62523;SDS011;53689;56.878;60.672;2022-12-11T01:41:55;11.07;;;5.72;;
62523;SDS011;53689;56.878;60.672;2022-12-11T01:47:30;9.18;;;5.30;;
62523;SDS011;53689;56.878;60.672;2022-12-11T01:49:57;9.80;;;5.10;;
62523;SDS011;53689;56.878;60.672;2022-12-11T01:52:25;8.00;;;4.72;;
62523;SDS011;53689;56.878;60.672;2022-12-11T01:54:52;8.35;;;5.40;;
62523;SDS011;53689;56.878;60.672;2022-12-11T01:57:20;9.27;;;4.43;;
62523;SDS011;53689;56.878;60.672;2022-12-11T01:59:47;8.55;;;5.13;;
62523;SDS011;53689;56.878;60.672;2022-12-11T02:02:16;7.20;;;4.47;;
62523;SDS011;53689;56.878;60.672;2022-12-11T02:04:48;8.07;;;4.78;;
62523;SDS011;53689;56.878;60.672;2022-12-11T02:07:15;11.20;;;5.85;;
62523;SDS011;53689;56.878;60.672;2022-12-11T02:09:43;12.02;;;6.20;;
62523;SDS011;53689;56.878;60.672;2022-12-11T02:12:14;10.07;;;5.68;;
62523;SDS011;53689;56.878;60.672;2022-12-11T02:14:47;9.30;;;5.47;;
62523;SDS011;53689;56.878;60.672;2022-12-11T02:17:22;9.10;;;5.35;;
62523;SDS011;53689;56.878;60.672;2022-12-11T02:20:00;10.10;;;6.40;;
62523;SDS011;53689;56.878;60.672;2022-12-11T02:22:48;10.27;;;5.72;;
62523;SDS011;53689;56.878;60.672;2022-12-11T02:25:29;14.75;;;8.38;;
62523;SDS011;53689;56.878;60.672;2022-12-11T02:30:56;9.95;;;5.78;;
62523;SDS011;53689;56.878;60.672;2022-12-11T02:33:30;11.18;;;5.88;;
62523;SDS011;53689;56.878;60.672;2022-12-11T02:36:02;10.90;;;6.85;;
62523;SDS011;53689;56.878;60.672;2022-12-11T02:38:34;13.70;;;7.28;;
62523;SDS011;53689;56.878;60.672;2022-12-11T02:41:05;10.90;;;5.68;;
62523;SDS011;53689;56.878;60.672;2022-12-11T02:43:38;12.00;;;6.45;;
62523;SDS011;53689;56.878;60.672;2022-12-11T02:46:07;9.88;;;5.93;;
62523;SDS011;53689;56.878;60.672;2022-12-11T02:48:36;11.00;;;6.28;;
62523;SDS011;53689;56.878;60.672;2022-12-11T02:51:06;9.93;;;6.30;;
62523;SDS011;53689;56.878;60.672;2022-12-11T02:53:37;13.27;;;6.03;;
62523;SDS011;53689;56.878;60.672;2022-12-11T02:56:10;11.13;;;6.40;;
62523;SDS011;53689;56.878;60.672;2022-12-11T02:58:45;9.30;;;5.03;;
62523;SDS011;53689;56.878;60.672;2022-12-11T03:01:24;9.45;;;6.13;;
62523;SDS011;53689;56.878;60.672;2022-12-11T03:03:52;9.10;;;5.43;;
62523;SDS011;53689;56.878;60.672;2022-12-11T03:06:21;7.72;;;5.10;;
62523;SDS011;53689;56.878;60.672;2022-12-11T03:08:53;9.52;;;5.75;;
62523;SDS011;53689;56.878;60.672;2022-12-11T03:11:21;8.75;;;5.63;;
62523;SDS011;53689;56.878;60.672;2022-12-11T03:13:50;9.95;;;5.93;;
62523;SDS011;53689;56.878;60.672;2022-12-11T03:16:22;9.18;;;5.72;;
62523;SDS011;53689;56.878;60.672;2022-12-11T03:18:58;9.80;;;5.97;;
62523;SDS011;53689;56.878;60.672;2022-12-11T03:21:33;12.30;;;6.93;;
62523;SDS011;53689;56.878;60.672;2022-12-11T03:24:09;11.30;;;6.57;;
62523;SDS011;53689;56.878;60.672;2022-12-11T03:26:42;9.63;;;5.30;;
62523;SDS011;53689;56.878;60.672;2022-12-11T03:29:24;12.23;;;6.05;;
62523;SDS011;53689;56.878;60.672;2022-12-11T03:31:58;13.10;;;7.07;;
62523;SDS011;53689;56.878;60.672;2022-12-11T03:34:32;9.95;;;5.47;;
62523;SDS011;53689;56.878;60.672;2022-12-11T03:37:05;9.93;;;5.25;;
62523;SDS011;53689;56.878;60.672;2022-12-11T03:39:35;8.73;;;4.82;;
62523;SDS011;53689;56.878;60.672;2022-12-11T03:42:06;8.98;;;5.63;;
62523;SDS011;53689;56.878;60.672;2022-12-11T03:44:39;10.65;;;6.28;;
62523;SDS011;53689;56.878;60.672;2022-12-11T03:47:10;10.13;;;5.03;;
62523;SDS011;53689;56.878;60.672;2022-12-11T03:49:41;9.93;;;5.45;;
62523;SDS011;53689;56.878;60.672;2022-12-11T03:52:11;10.48;;;5.75;;
62523;SDS011;53689;56.878;60.672;2022-12-11T03:54:40;11.40;;;6.20;;
62523;SDS011;53689;56.878;60.672;2022-12-11T03:57:12;11.57;;;6.60;;
62523;SDS011;53689;56.878;60.672;2022-12-11T03:59:44;11.52;;;5.68;;
62523;SDS011;53689;56.878;60.672;2022-12-11T04:02:11;8.45;;;5.78;;
62523;SDS011;53689;56.878;60.672;2022-12-11T04:04:39;10.68;;;6.05;;
62523;SDS011;53689;56.878;60.672;2022-12-11T04:07:07;12.93;;;7.90;;
62523;SDS011;53689;56.878;60.672;2022-12-11T04:09:36;13.93;;;7.13;;
62523;SDS011;53689;56.878;60.672;2022-12-11T04:12:03;11.95;;;6.32;;
62523;SDS011;53689;56.878;60.672;2022-12-11T04:14:31;8.85;;;5.90;;
62523;SDS011;53689;56.878;60.672;2022-12-11T04:17:00;9.50;;;6.05;;
62523;SDS011;53689;56.878;60.672;2022-12-11T04:19:28;13.32;;;6.45;;
62523;SDS011;53689;56.878;60.672;2022-12-11T04:21:56;12.52;;;6.95;;
62523;SDS011;53689;56.878;60.672;2022-12-11T04:24:24;10.77;;;5.53;;
62523;SDS011;53689;56.878;60.672;2022-12-11T04:26:51;13.35;;;6.88;;
62523;SDS011;53689;56.878;60.672;2022-12-11T04:29:19;13.32;;;7.32;;
62523;SDS011;53689;56.878;60.672;2022-12-11T04:31:47;11.27;;;6.45;;
62523;SDS011;53689;56.878;60.672;2022-12-11T04:34:16;12.02;;;6.97;;
62523;SDS011;53689;56.878;60.672;2022-12-11T04:36:43;12.50;;;6.53;;
62523;SDS011;53689;56.878;60.672;2022-12-11T04:39:12;12.73;;;6.85;;
62523;SDS011;53689;56.878;60.672;2022-12-11T04:41:39;11.80;;;6.63;;
62523;SDS011;53689;56.878;60.672;2022-12-11T04:44:07;15.77;;;7.25;;
62523;SDS011;53689;56.878;60.672;2022-12-11T04:46:34;12.00;;;6.18;;
62523;SDS011;53689;56.878;60.672;2022-12-11T04:49:02;11.93;;;6.50;;
62523;SDS011;53689;56.878;60.672;2022-12-11T04:51:31;12.32;;;6.45;;
62523;SDS011;53689;56.878;60.672;2022-12-11T04:53:59;13.73;;;6.43;;
62523;SDS011;53689;56.878;60.672;2022-12-11T04:56:26;13.07;;;6.57;;
62523;SDS011;53689;56.878;60.672;2022-12-11T04:58:54;13.55;;;7.80;;
62523;SDS011;53689;56.878;60.672;2022-12-11T05:01:22;16.50;;;7.22;;
62523;SDS011;53689;56.878;60.672;2022-12-11T05:03:50;14.13;;;7.57;;
62523;SDS011;53689;56.878;60.672;2022-12-11T05:06:17;11.10;;;6.43;;
62523;SDS011;53689;56.878;60.672;2022-12-11T05:08:46;16.20;;;7.60;;
62523;SDS011;53689;56.878;60.672;2022-12-11T05:11:14;13.82;;;7.22;;
62523;SDS011;53689;56.878;60.672;2022-12-11T05:13:43;14.35;;;8.32;;
62523;SDS011;53689;56.878;60.672;2022-12-11T05:16:12;14.50;;;9.13;;
62523;SDS011;53689;56.878;60.672;2022-12-11T05:18:41;15.38;;;9.70;;
62523;SDS011;53689;56.878;60.672;2022-12-11T05:21:09;14.38;;;9.02;;
62523;SDS011;53689;56.878;60.672;2022-12-11T05:23:38;16.95;;;10.32;;
62523;SDS011;53689;56.878;60.672;2022-12-11T05:26:10;20.42;;;9.15;;
62523;SDS011;53689;56.878;60.672;2022-12-11T05:28:39;15.48;;;8.40;;
62523;SDS011;53689;56.878;60.672;2022-12-11T05:31:10;13.27;;;8.18;;
62523;SDS011;53689;56.878;60.672;2022-12-11T05:33:39;15.05;;;8.18;;
62523;SDS011;53689;56.878;60.672;2022-12-11T05:36:07;16.80;;;8.68;;
62523;SDS011;53689;56.878;60.672;2022-12-11T05:38:40;11.63;;;7.63;;
62523;SDS011;53689;56.878;60.672;2022-12-11T05:41:09;15.40;;;8.38;;
62523;SDS011;53689;56.878;60.672;2022-12-11T05:43:40;14.25;;;7.72;;
62523;SDS011;53689;56.878;60.672;2022-12-11T05:46:08;15.73;;;7.90;;
62523;SDS011;53689;56.878;60.672;2022-12-11T05:48:37;15.40;;;8.32;;
62523;SDS011;53689;56.878;60.672;2022-12-11T05:51:07;14.75;;;8.13;;
62523;SDS011;53689;56.878;60.672;2022-12-11T05:53:36;14.32;;;8.43;;
62523;SDS011;53689;56.878;60.672;2022-12-11T05:56:06;12.50;;;7.38;;
62523;SDS011;53689;56.878;60.672;2022-12-11T05:58:37;16.52;;;8.60;;
62523;SDS011;53689;56.878;60.672;2022-12-11T06:01:06;19.23;;;11.50;;
62523;SDS011;53689;56.878;60.672;2022-12-11T06:03:35;12.95;;;8.90;;
62523;SDS011;53689;56.878;60.672;2022-12-11T06:06:04;14.93;;;9.05;;
62523;SDS011;53689;56.878;60.672;2022-12-11T06:08:34;16.67;;;9.50;;
62523;SDS011;53689;56.878;60.672;2022-12-11T06:11:02;17.73;;;9.95;;
62523;SDS011;53689;56.878;60.672;2022-12-11T06:13:31;15.20;;;8.75;;
62523;SDS011;53689;56.878;60.672;2022-12-11T06:15:59;14.75;;;9.27;;
62523;SDS011;53689;56.878;60.672;2022-12-11T06:18:28;13.48;;;8.55;;
62523;SDS011;53689;56.878;60.672;2022-12-11T06:20:56;14.65;;;8.82;;
62523;SDS011;53689;56.878;60.672;2022-12-11T06:23:24;18.17;;;10.90;;
62523;SDS011;53689;56.878;60.672;2022-12-11T06:25:51;15.15;;;8.07;;
62523;SDS011;53689;56.878;60.672;2022-12-11T06:28:19;15.90;;;8.85;;
62523;SDS011;53689;56.878;60.672;2022-12-11T06:30:49;17.33;;;9.35;;
62523;SDS011;53689;56.878;60.672;2022-12-11T06:33:17;15.13;;;8.68;;
62523;SDS011;53689;56.878;60.672;2022-12-11T06:35:45;11.68;;;6.97;;
62523;SDS011;53689;56.878;60.672;2022-12-11T06:38:14;12.50;;;8.45;;
62523;SDS011;53689;56.878;60.672;2022-12-11T06:40:42;13.57;;;8.15;;
62523;SDS011;53689;56.878;60.672;2022-12-11T06:43:10;16.40;;;10.77;;
62523;SDS011;53689;56.878;60.672;2022-12-11T06:45:39;22.52;;;11.48;;
62523;SDS011;53689;56.878;60.672;2022-12-11T06:48:08;16.73;;;8.63;;
62523;SDS011;53689;56.878;60.672;2022-12-11T06:50:36;16.58;;;9.25;;
62523;SDS011;53689;56.878;60.672;2022-12-11T06:53:06;12.93;;;7.63;;
62523;SDS011;53689;56.878;60.672;2022-12-11T06:55:34;19.52;;;11.40;;
62523;SDS011;53689;56.878;60.672;2022-12-11T06:58:01;15.48;;;10.48;;
62523;SDS011;53689;56.878;60.672;2022-12-11T07:00:30;19.27;;;11.45;;
62523;SDS011;53689;56.878;60.672;2022-12-11T07:02:58;17.52;;;10.70;;
62523;SDS011;53689;56.878;60.672;2022-12-11T07:05:27;23.45;;;13.55;;
62523;SDS011;53689;56.878;60.672;2022-12-11T07:07:55;14.18;;;8.85;;
62523;SDS011;53689;56.878;60.672;2022-12-11T07:10:24;16.40;;;10.48;;
62523;SDS011;53689;56.878;60.672;2022-12-11T07:12:52;20.30;;;11.18;;
62523;SDS011;53689;56.878;60.672;2022-12-11T07:15:21;20.50;;;11.43;;
62523;SDS011;53689;56.878;60.672;2022-12-11T07:17:48;21.40;;;12.38;;
62523;SDS011;53689;56.878;60.672;2022-12-11T07:20:16;15.50;;;8.65;;
62523;SDS011;53689;56.878;60.672;2022-12-11T07:22:46;19.40;;;9.52;;
62523;SDS011;53689;56.878;60.672;2022-12-11T07:25:13;16.83;;;9.38;;
62523;SDS011;53689;56.878;60.672;2022-12-11T07:27:41;15.55;;;9.05;;
62523;SDS011;53689;56.878;60.672;2022-12-11T07:30:10;17.15;;;9.38;;
62523;SDS011;53689;56.878;60.672;2022-12-11T07:32:39;16.08;;;9.23;;
62523;SDS011;53689;56.878;60.672;2022-12-11T07:35:07;13.15;;;9.30;;
62523;SDS011;53689;56.878;60.672;2022-12-11T07:40:08;16.95;;;8.95;;
62523;SDS011;53689;56.878;60.672;2022-12-11T07:42:37;21.70;;;11.23;;
62523;SDS011;53689;56.878;60.672;2022-12-11T07:45:12;16.40;;;10.95;;
62523;SDS011;53689;56.878;60.672;2022-12-11T07:47:40;17.08;;;10.52;;
62523;SDS011;53689;56.878;60.672;2022-12-11T07:50:09;20.80;;;11.07;;
62523;SDS011;53689;56.878;60.672;2022-12-11T07:52:36;16.48;;;10.18;;
62523;SDS011;53689;56.878;60.672;2022-12-11T07:55:04;17.30;;;10.05;;
62523;SDS011;53689;56.878;60.672;2022-12-11T07:57:33;18.73;;;10.45;;
62523;SDS011;53689;56.878;60.672;2022-12-11T08:00:01;16.37;;;9.07;;
62523;SDS011;53689;56.878;60.672;2022-12-11T08:02:37;13.57;;;9.20;;
62523;SDS011;53689;56.878;60.672;2022-12-11T08:05:05;15.45;;;9.48;;
62523;SDS011;53689;56.878;60.672;2022-12-11T08:10:03;15.75;;;9.45;;
62523;SDS011;53689;56.878;60.672;2022-12-11T08:12:31;21.35;;;11.38;;
62523;SDS011;53689;56.878;60.672;2022-12-11T08:15:00;19.05;;;11.60;;
62523;SDS011;53689;56.878;60.672;2022-12-11T08:17:29;16.83;;;9.45;;
62523;SDS011;53689;56.878;60.672;2022-12-11T08:20:06;15.70;;;9.35;;
62523;SDS011;53689;56.878;60.672;2022-12-11T08:22:34;16.73;;;9.73;;
62523;SDS011;53689;56.878;60.672;2022-12-11T08:25:02;19.25;;;10.68;;
62523;SDS011;53689;56.878;60.672;2022-12-11T08:27:30;19.88;;;9.35;;
62523;SDS011;53689;56.878;60.672;2022-12-11T08:30:00;19.75;;;9.77;;
62523;SDS011;53689;56.878;60.672;2022-12-11T08:32:27;14.55;;;9.63;;
62523;SDS011;53689;56.878;60.672;2022-12-11T08:34:55;12.55;;;8.68;;
62523;SDS011;53689;56.878;60.672;2022-12-11T08:37:23;16.75;;;10.10;;
62523;SDS011;53689;56.878;60.672;2022-12-11T08:39:51;15.32;;;9.23;;
62523;SDS011;53689;56.878;60.672;2022-12-11T08:42:20;16.90;;;11.40;;
62523;SDS011;53689;56.878;60.672;2022-12-11T08:44:48;22.40;;;12.80;;
62523;SDS011;53689;56.878;60.672;2022-12-11T08:47:17;19.08;;;12.00;;
62523;SDS011;53689;56.878;60.672;2022-12-11T08:49:46;18.65;;;12.23;;
62523;SDS011;53689;56.878;60.672;2022-12-11T08:52:14;19.80;;;12.43;;
62523;SDS011;53689;56.878;60.672;2022-12-11T08:54:42;18.55;;;13.02;;
62523;SDS011;53689;56.878;60.672;2022-12-11T08:57:10;17.95;;;12.35;;
62523;SDS011;53689;56.878;60.672;2022-12-11T08:59:39;21.65;;;12.95;;
62523;SDS011;53689;56.878;60.672;2022-12-11T09:02:08;18.42;;;12.15;;
62523;SDS011;53689;56.878;60.672;2022-12-11T09:04:40;22.48;;;12.98;;
62523;SDS011;53689;56.878;60.672;2022-12-11T09:09:35;18.77;;;12.10;;
62523;SDS011;53689;56.878;60.672;2022-12-11T09:12:03;21.92;;;12.45;;
62523;SDS011;53689;56.878;60.672;2022-12-11T09:14:32;20.17;;;13.13;;
62523;SDS011;53689;56.878;60.672;2022-12-11T09:17:00;19.35;;;12.82;;
62523;SDS011;53689;56.878;60.672;2022-12-11T09:19:28;20.42;;;12.13;;
62523;SDS011;53689;56.878;60.672;2022-12-11T09:21:59;19.95;;;13.30;;
62523;SDS011;53689;56.878;60.672;2022-12-11T09:24:28;20.42;;;11.85;;
62523;SDS011;53689;56.878;60.672;2022-12-11T09:26:55;18.48;;;12.68;;
62523;SDS011;53689;56.878;60.672;2022-12-11T09:29:23;19.92;;;11.68;;
62523;SDS011;53689;56.878;60.672;2022-12-11T09:31:51;21.83;;;12.90;;
62523;SDS011;53689;56.878;60.672;2022-12-11T09:34:19;17.88;;;11.63;;
62523;SDS011;53689;56.878;60.672;2022-12-11T09:36:55;22.30;;;12.60;;
62523;SDS011;53689;56.878;60.672;2022-12-11T09:39:24;19.80;;;11.70;;
62523;SDS011;53689;56.878;60.672;2022-12-11T09:41:53;17.58;;;11.77;;
62523;SDS011;53689;56.878;60.672;2022-12-11T09:44:29;19.33;;;12.18;;
62523;SDS011;53689;56.878;60.672;2022-12-11T09:47:01;21.33;;;12.00;;
62523;SDS011;53689;56.878;60.672;2022-12-11T09:49:32;16.60;;;11.80;;
62523;SDS011;53689;56.878;60.672;2022-12-11T09:52:11;17.02;;;11.25;;
62523;SDS011;53689;56.878;60.672;2022-12-11T09:54:53;18.75;;;12.25;;
62523;SDS011;53689;56.878;60.672;2022-12-11T09:57:31;21.52;;;12.13;;
62523;SDS011;53689;56.878;60.672;2022-12-11T10:00:11;19.60;;;11.25;;
62523;SDS011;53689;56.878;60.672;2022-12-11T10:02:55;19.67;;;11.70;;
62523;SDS011;53689;56.878;60.672;2022-12-11T10:05:49;18.42;;;11.25;;
62523;SDS011;53689;56.878;60.672;2022-12-11T10:08:28;19.20;;;11.45;;
62523;SDS011;53689;56.878;60.672;2022-12-11T10:11:04;20.65;;;12.02;;
62523;SDS011;53689;56.878;60.672;2022-12-11T10:13:45;19.00;;;10.77;;
62523;SDS011;53689;56.878;60.672;2022-12-11T10:16:24;19.80;;;11.15;;
62523;SDS011;53689;56.878;60.672;2022-12-11T10:19:00;24.45;;;12.07;;
62523;SDS011;53689;56.878;60.672;2022-12-11T10:21:31;16.98;;;10.77;;
62523;SDS011;53689;56.878;60.672;2022-12-11T10:24:04;18.98;;;11.18;;
62523;SDS011;53689;56.878;60.672;2022-12-11T10:27:12;18.33;;;10.82;;
62523;SDS011;53689;56.878;60.672;2022-12-11T10:29:42;16.30;;;10.50;;
62523;SDS011;53689;56.878;60.672;2022-12-11T10:32:12;17.58;;;10.57;;
62523;SDS011;53689;56.878;60.672;2022-12-11T10:34:47;18.27;;;10.80;;
62523;SDS011;53689;56.878;60.672;2022-12-11T10:37:20;16.70;;;9.60;;
62523;SDS011;53689;56.878;60.672;2022-12-11T10:39:47;21.35;;;11.07;;
62523;SDS011;53689;56.878;60.672;2022-12-11T10:42:17;17.83;;;11.13;;
62523;SDS011;53689;56.878;60.672;2022-12-11T10:44:56;20.05;;;11.10;;
62523;SDS011;53689;56.878;60.672;2022-12-11T10:47:26;19.45;;;11.52;;
62523;SDS011;53689;56.878;60.672;2022-12-11T10:49:56;16.75;;;11.50;;
62523;SDS011;53689;56.878;60.672;2022-12-11T10:52:26;18.23;;;11.38;;
62523;SDS011;53689;56.878;60.672;2022-12-11T10:54:59;19.17;;;11.05;;
62523;SDS011;53689;56.878;60.672;2022-12-11T10:57:31;19.25;;;11.02;;
62523;SDS011;53689;56.878;60.672;2022-12-11T11:00:02;16.95;;;10.45;;
62523;SDS011;53689;56.878;60.672;2022-12-11T11:02:31;16.35;;;10.50;;
62523;SDS011;53689;56.878;60.672;2022-12-11T11:05:10;16.48;;;11.18;;
62523;SDS011;53689;56.878;60.672;2022-12-11T11:07:40;16.85;;;10.55;;
62523;SDS011;53689;56.878;60.672;2022-12-11T11:10:14;16.20;;;10.07;;
62523;SDS011;53689;56.878;60.672;2022-12-11T11:12:45;17.48;;;10.35;;
62523;SDS011;53689;56.878;60.672;2022-12-11T11:15:16;19.30;;;10.73;;
62523;SDS011;53689;56.878;60.672;2022-12-11T11:17:46;17.38;;;10.85;;
62523;SDS011;53689;56.878;60.672;2022-12-11T11:20:22;19.70;;;10.27;;
62523;SDS011;53689;56.878;60.672;2022-12-11T11:25:22;17.48;;;11.00;;
62523;SDS011;53689;56.878;60.672;2022-12-11T11:27:52;17.60;;;11.00;;
62523;SDS011;53689;56.878;60.672;2022-12-11T11:30:22;17.60;;;11.27;;
62523;SDS011;53689;56.878;60.672;2022-12-11T11:35:21;17.15;;;10.43;;
62523;SDS011;53689;56.878;60.672;2022-12-11T11:37:55;20.05;;;11.32;;
62523;SDS011;53689;56.878;60.672;2022-12-11T11:40:29;17.27;;;11.32;;
62523;SDS011;53689;56.878;60.672;2022-12-11T11:43:02;18.40;;;11.63;;
62523;SDS011;53689;56.878;60.672;2022-12-11T11:45:39;19.30;;;12.05;;
62523;SDS011;53689;56.878;60.672;2022-12-11T11:48:17;23.20;;;12.63;;
62523;SDS011;53689;56.878;60.672;2022-12-11T11:51:06;18.17;;;11.48;;
62523;SDS011;53689;56.878;60.672;2022-12-11T11:53:39;19.35;;;12.18;;
62523;SDS011;53689;56.878;60.672;2022-12-11T11:56:15;20.10;;;12.48;;
62523;SDS011;53689;56.878;60.672;2022-12-11T11:58:48;22.67;;;12.45;;
62523;SDS011;53689;56.878;60.672;2022-12-11T12:01:22;18.23;;;12.40;;
62523;SDS011;53689;56.878;60.672;2022-12-11T12:03:50;20.40;;;12.18;;
62523;SDS011;53689;56.878;60.672;2022-12-11T12:06:20;17.83;;;11.27;;
62523;SDS011;53689;56.878;60.672;2022-12-11T12:09:02;17.52;;;11.23;;
62523;SDS011;53689;56.878;60.672;2022-12-11T12:11:41;21.63;;;12.45;;
62523;SDS011;53689;56.878;60.672;2022-12-11T12:14:17;19.52;;;11.88;;
62523;SDS011;53689;56.878;60.672;2022-12-11T12:17:13;19.70;;;11.60;;
62523;SDS011;53689;56.878;60.672;2022-12-11T12:19:53;20.67;;;11.68;;
62523;SDS011;53689;56.878;60.672;2022-12-11T12:25:12;19.75;;;11.48;;
62523;SDS011;53689;56.878;60.672;2022-12-11T12:27:49;20.92;;;12.32;;
62523;SDS011;53689;56.878;60.672;2022-12-11T12:30:27;19.75;;;12.48;;
62523;SDS011;53689;56.878;60.672;2022-12-11T12:33:09;22.63;;;12.27;;
62523;SDS011;53689;56.878;60.672;2022-12-11T12:35:49;24.85;;;14.05;;
62523;SDS011;53689;56.878;60.672;2022-12-11T12:38:29;21.40;;;13.57;;
62523;SDS011;53689;56.878;60.672;2022-12-11T12:41:06;19.55;;;12.90;;
62523;SDS011;53689;56.878;60.672;2022-12-11T12:43:46;21.00;;;12.68;;
62523;SDS011;53689;56.878;60.672;2022-12-11T12:46:27;19.88;;;12.00;;
62523;SDS011;53689;56.878;60.672;2022-12-11T12:49:09;21.65;;;11.95;;
62523;SDS011;53689;56.878;60.672;2022-12-11T12:51:41;21.20;;;12.23;;
62523;SDS011;53689;56.878;60.672;2022-12-11T12:54:11;18.92;;;12.73;;
62523;SDS011;53689;56.878;60.672;2022-12-11T12:56:42;18.00;;;12.32;;
62523;SDS011;53689;56.878;60.672;2022-12-11T12:59:20;18.42;;;12.80;;
62523;SDS011;53689;56.878;60.672;2022-12-11T13:01:52;20.52;;;12.35;;
62523;SDS011;53689;56.878;60.672;2022-12-11T13:04:36;20.45;;;13.30;;
62523;SDS011;53689;56.878;60.672;2022-12-11T13:07:25;20.55;;;13.30;;
62523;SDS011;53689;56.878;60.672;2022-12-11T13:09:59;19.30;;;12.85;;
62523;SDS011;53689;56.878;60.672;2022-12-11T13:12:32;24.50;;;12.98;;
62523;SDS011;53689;56.878;60.672;2022-12-11T13:18:01;21.63;;;13.88;;
62523;SDS011;53689;56.878;60.672;2022-12-11T13:20:31;22.77;;;14.13;;
62523;SDS011;53689;56.878;60.672;2022-12-11T13:23:08;22.85;;;14.68;;
62523;SDS011;53689;56.878;60.672;2022-12-11T13:25:47;26.58;;;18.15;;
62523;SDS011;53689;56.878;60.672;2022-12-11T13:28:22;28.63;;;19.42;;
62523;SDS011;53689;56.878;60.672;2022-12-11T13:30:55;31.80;;;21.13;;
62523;SDS011;53689;56.878;60.672;2022-12-11T13:33:27;28.80;;;19.95;;
62523;SDS011;53689;56.878;60.672;2022-12-11T13:36:05;31.42;;;19.70;;
62523;SDS011;53689;56.878;60.672;2022-12-11T13:38:55;36.97;;;24.30;;
62523;SDS011;53689;56.878;60.672;2022-12-11T13:41:27;37.53;;;24.25;;
62523;SDS011;53689;56.878;60.672;2022-12-11T13:43:59;36.33;;;24.45;;
62523;SDS011;53689;56.878;60.672;2022-12-11T13:46:30;35.00;;;23.88;;
62523;SDS011;53689;56.878;60.672;2022-12-11T13:49:03;32.83;;;22.95;;
62523;SDS011;53689;56.878;60.672;2022-12-11T13:51:34;34.85;;;24.35;;
62523;SDS011;53689;56.878;60.672;2022-12-11T13:54:03;38.95;;;25.02;;
62523;SDS011;53689;56.878;60.672;2022-12-11T13:56:33;35.45;;;23.73;;
62523;SDS011;53689;56.878;60.672;2022-12-11T13:59:01;32.53;;;23.58;;
62523;SDS011;53689;56.878;60.672;2022-12-11T14:01:30;34.72;;;24.13;;
62523;SDS011;53689;56.878;60.672;2022-12-11T14:04:05;34.25;;;22.73;;
62523;SDS011;53689;56.878;60.672;2022-12-11T14:06:38;37.55;;;23.67;;
62523;SDS011;53689;56.878;60.672;2022-12-11T14:09:07;34.22;;;24.10;;
62523;SDS011;53689;56.878;60.672;2022-12-11T14:11:36;32.33;;;23.40;;
62523;SDS011;53689;56.878;60.672;2022-12-11T14:14:07;32.47;;;23.25;;
62523;SDS011;53689;56.878;60.672;2022-12-11T14:16:46;33.13;;;23.93;;
62523;SDS011;53689;56.878;60.672;2022-12-11T14:19:17;32.53;;;22.08;;
62523;SDS011;53689;56.878;60.672;2022-12-11T14:21:54;28.30;;;21.02;;
62523;SDS011;53689;56.878;60.672;2022-12-11T14:24:24;33.90;;;23.08;;
62523;SDS011;53689;56.878;60.672;2022-12-11T14:26:53;33.63;;;23.98;;
62523;SDS011;53689;56.878;60.672;2022-12-11T14:29:26;27.85;;;22.10;;
62523;SDS011;53689;56.878;60.672;2022-12-11T14:31:57;38.10;;;22.92;;
62523;SDS011;53689;56.878;60.672;2022-12-11T14:34:31;32.78;;;23.10;;
62523;SDS011;53689;56.878;60.672;2022-12-11T14:37:03;34.13;;;22.40;;
62523;SDS011;53689;56.878;60.672;2022-12-11T14:39:36;30.77;;;22.08;;
62523;SDS011;53689;56.878;60.672;2022-12-11T14:42:09;39.65;;;24.95;;
62523;SDS011;53689;56.878;60.672;2022-12-11T14:44:44;43.75;;;31.73;;
62523;SDS011;53689;56.878;60.672;2022-12-11T14:47:17;38.65;;;26.60;;
62523;SDS011;53689;56.878;60.672;2022-12-11T14:49:51;35.53;;;26.73;;
62523;SDS011;53689;56.878;60.672;2022-12-11T14:52:24;33.90;;;21.95;;
62523;SDS011;53689;56.878;60.672;2022-12-11T14:54:59;32.80;;;21.73;;
62523;SDS011;53689;56.878;60.672;2022-12-11T14:57:32;25.33;;;17.17;;
62523;SDS011;53689;56.878;60.672;2022-12-11T15:00:03;27.95;;;18.85;;
62523;SDS011;53689;56.878;60.672;2022-12-11T15:02:32;22.88;;;17.42;;
62523;SDS011;53689;56.878;60.672;2022-12-11T15:07:35;26.35;;;16.33;;
62523;SDS011;53689;56.878;60.672;2022-12-11T15:10:03;27.30;;;17.47;;